Yorkton Municipal Airport
CYQV : rendu visible

Aérodrome :











RETROUVEZ-NOUS SUR...

 
LOGIN :

S'inscrire | Disclaimer

   EN    FR    IT 

 









Légende :    VFR   VFR Marginal   IFR   IFR Intensif   IFR Très Intensif
Visi : 
Plafond : 
>= 8 km
>= 3000ft
5 à 8 km
1000 à 3000 ft
1500m à 5 km
500 à 1000 ft
800 à 1500m
200 à 500 ft
< 800m
< 200 ft
Symboles :   Orages  Brouillard  Fortes neiges  Fortes précipitations  Vent > 20 kt






- Altitude de l'aérodrome : 1635 ft
- Code IATA : YQV


CYQV - Yorkton Municipal

DERNIER METAR :
  • 241800Z AUTO 30008KT 9SM -SN OVC014 M09/M11 A2985 RMK SLP145

METARs EXPIRÉS :
  • 241700Z AUTO 31013KT 9SM -SN OVC014 M09/M12 A2986 RMK SLP148
  • 241606Z AUTO 30010KT 6SM -SN OVC014 M10/M12 A2985 RMK SLP145
  • 241548Z AUTO 29009KT 5SM -SN OVC014 M10/M12 A2984 RMK SLP144

TAF TAF CYQV
Valide du 24 à 18h jusqu'au 25 à 06h UTC


241738Z 2418/2506 30012KT P6SM OVC012
TEMPO 2418/2503 6SM -SN OVC008
BECMG 2421/2423 23008KT
FM250300 18008KT P6SM SCT015
TEMPO 2503/2506 BKN015 RMK FCST BASED ON AUTO OBS. NXT FCST BY 250000Z
FIR CZWG / Amérique du Nord



MET'MAP, la Météo Aéronautique d'un coup d'oeil ! - Copyright ORBIFLY Décembre 2007 - Disclaimer

ORBIFLY MET'MAP TEAM :

Programmation & Développement : Alexandra Zaïnal
Sur une idée originale de : Baudouin d'Aumeries
Assistance à la programmation : Marc-Olivier Méhu
Soutien technique & logistique : Manuel Goepfert

Contact : metmap@orbifly.com




SOURCES & CREDITS :

   NOAA       Earth
Advisory